createdAt,value
2023-04-24T00:00:15.936Z,7.43
2023-04-24T00:02:50.141Z,7.18
2023-04-24T00:05:18.663Z,4.70
2023-04-24T00:07:46.628Z,6.60
2023-04-24T00:10:14.501Z,6.55
2023-04-24T00:12:42.398Z,6.78
2023-04-24T00:15:10.574Z,11.05
2023-04-24T00:17:38.546Z,6.80
2023-04-24T00:20:08.111Z,5.65
2023-04-24T00:22:35.947Z,5.63
2023-04-24T00:25:03.847Z,4.93
2023-04-24T00:27:31.776Z,9.32
2023-04-24T00:29:59.743Z,6.70
2023-04-24T00:32:27.681Z,4.05
2023-04-24T00:34:55.564Z,7.70
2023-04-24T00:37:23.171Z,11.85
2023-04-24T00:39:51.055Z,9.20
2023-04-24T00:42:18.785Z,7.75
2023-04-24T00:44:46.583Z,5.50
2023-04-24T00:47:15.061Z,11.40
2023-04-24T00:49:43.240Z,5.78
2023-04-24T00:52:11.845Z,6.03
2023-04-24T00:54:39.731Z,11.65
2023-04-24T00:57:07.457Z,6.95
2023-04-24T00:59:37.773Z,8.48
2023-04-24T01:02:06.180Z,10.45
2023-04-24T01:04:35.004Z,5.05
2023-04-24T01:07:02.986Z,8.63
2023-04-24T01:09:30.840Z,6.75
2023-04-24T01:12:00.140Z,3.05
2023-04-24T01:14:27.959Z,5.43
2023-04-24T01:16:56.088Z,9.30
2023-04-24T01:19:23.862Z,3.85
2023-04-24T01:21:53.436Z,3.72
2023-04-24T01:24:21.513Z,5.68
2023-04-24T01:26:49.438Z,4.70
2023-04-24T01:29:17.325Z,6.53
2023-04-24T01:31:45.303Z,4.70
2023-04-24T01:34:13.158Z,6.38
2023-04-24T01:36:40.975Z,6.65
2023-04-24T01:39:12.567Z,5.93
2023-04-24T01:41:40.398Z,6.65
2023-04-24T01:44:08.169Z,9.75
2023-04-24T01:46:36.916Z,7.28
2023-04-24T01:49:04.914Z,7.57
2023-04-24T01:51:32.717Z,8.38
2023-04-24T01:54:00.571Z,9.60
2023-04-24T01:56:31.080Z,12.18
2023-04-24T01:58:59.642Z,11.95
2023-04-24T02:01:27.798Z,6.50
2023-04-24T02:03:56.080Z,6.72
2023-04-24T02:06:24.599Z,4.80
2023-04-24T02:08:52.428Z,4.68
2023-04-24T02:11:20.210Z,3.47
2023-04-24T02:13:50.337Z,7.75
2023-04-24T02:16:18.093Z,8.70
2023-04-24T02:18:46.000Z,4.82
2023-04-24T02:21:14.073Z,4.90
2023-04-24T02:23:41.827Z,5.05
2023-04-24T02:26:09.640Z,6.00
2023-04-24T02:28:37.458Z,5.53
2023-04-24T02:31:05.289Z,12.35
2023-04-24T02:33:33.135Z,9.48
2023-04-24T02:36:01.335Z,5.05
2023-04-24T02:38:29.216Z,8.57
2023-04-24T02:40:57.074Z,7.63
2023-04-24T02:43:24.902Z,8.88
2023-04-24T02:45:52.918Z,5.82
2023-04-24T02:48:21.974Z,9.10
2023-04-24T02:50:49.639Z,3.97
2023-04-24T02:53:17.463Z,14.35
2023-04-24T02:55:45.187Z,10.85
2023-04-24T02:58:14.035Z,8.10
2023-04-24T03:00:42.015Z,6.47
2023-04-24T03:03:10.478Z,5.88
2023-04-24T03:05:38.349Z,4.05
2023-04-24T03:08:08.483Z,8.95
2023-04-24T03:10:36.468Z,5.20
2023-04-24T03:13:04.302Z,5.20
2023-04-24T03:15:32.199Z,6.85
2023-04-24T03:18:00.022Z,4.53
2023-04-24T03:20:27.750Z,3.67
2023-04-24T03:22:55.726Z,6.38
2023-04-24T03:25:23.455Z,4.93
2023-04-24T03:27:57.342Z,10.27
2023-04-24T03:30:25.014Z,6.45
2023-04-24T03:32:52.882Z,5.80
2023-04-24T03:35:20.879Z,3.55
2023-04-24T03:37:48.536Z,12.95
2023-04-24T03:40:16.334Z,8.85
2023-04-24T03:42:44.344Z,7.40
2023-04-24T03:45:12.427Z,7.97
2023-04-24T03:47:40.615Z,12.60
2023-04-24T03:50:09.196Z,5.85
2023-04-24T03:52:37.641Z,7.50
2023-04-24T03:55:05.737Z,8.40
2023-04-24T03:57:33.396Z,10.55
2023-04-24T04:00:01.494Z,8.75
2023-04-24T04:02:30.070Z,6.47
2023-04-24T04:04:58.038Z,14.38
2023-04-24T04:07:25.788Z,5.47
2023-04-24T04:09:53.944Z,4.55
2023-04-24T04:12:21.799Z,7.90
2023-04-24T04:14:49.605Z,6.38
2023-04-24T04:17:17.504Z,5.88
2023-04-24T04:19:45.526Z,8.48
2023-04-24T04:22:13.430Z,10.13
2023-04-24T04:24:41.701Z,5.55
2023-04-24T04:27:09.419Z,8.38
2023-04-24T04:29:37.568Z,10.18
2023-04-24T04:32:05.326Z,9.20
2023-04-24T04:34:34.323Z,6.97
2023-04-24T04:37:03.271Z,15.38
2023-04-24T04:39:31.720Z,11.25
2023-04-24T04:41:59.676Z,8.18
2023-04-24T04:44:30.448Z,7.80
2023-04-24T04:46:58.454Z,16.45
2023-04-24T04:49:26.761Z,10.05
2023-04-24T04:51:54.457Z,16.75
2023-04-24T04:54:22.079Z,18.23
2023-04-24T04:56:51.982Z,35.42
2023-04-24T05:01:47.798Z,17.83
2023-04-24T05:04:16.272Z,40.20
2023-04-24T05:06:44.177Z,10.48
2023-04-24T05:09:12.023Z,16.73
2023-04-24T05:11:39.764Z,25.23
2023-04-24T05:14:07.622Z,25.67
2023-04-24T05:16:35.536Z,14.55
2023-04-24T05:19:03.648Z,19.63
2023-04-24T05:21:31.895Z,14.32
2023-04-24T05:23:59.741Z,29.50
2023-04-24T05:26:27.603Z,13.13
2023-04-24T05:28:55.598Z,22.75
2023-04-24T05:31:23.505Z,12.18
2023-04-24T05:33:51.500Z,26.65
2023-04-24T05:36:19.432Z,23.48
2023-04-24T05:38:47.264Z,56.85
2023-04-24T05:41:15.142Z,37.45
2023-04-24T05:43:43.016Z,51.95
2023-04-24T05:46:10.871Z,48.78
2023-04-24T05:48:38.732Z,70.45
2023-04-24T05:51:07.010Z,66.30
2023-04-24T05:53:34.797Z,47.78
2023-04-24T05:56:02.760Z,52.95
2023-04-24T05:58:30.477Z,22.63
2023-04-24T06:00:59.716Z,24.85
2023-04-24T06:03:28.526Z,61.00
2023-04-24T06:05:56.610Z,29.23
2023-04-24T06:08:24.394Z,19.23
2023-04-24T06:10:52.148Z,20.85
2023-04-24T06:13:19.950Z,43.53
2023-04-24T06:15:47.851Z,16.02
2023-04-24T06:18:16.262Z,22.45
2023-04-24T06:20:44.137Z,18.20
2023-04-24T06:23:14.906Z,36.40
2023-04-24T06:25:42.852Z,25.83
2023-04-24T06:28:11.759Z,20.50
2023-04-24T06:30:39.370Z,23.42
2023-04-24T06:33:19.553Z,14.85
2023-04-24T06:35:49.076Z,26.23
2023-04-24T06:38:17.573Z,43.33
2023-04-24T06:40:45.414Z,16.52
2023-04-24T06:43:16.692Z,31.65
2023-04-24T06:45:45.185Z,19.42
2023-04-24T06:48:13.218Z,29.52
2023-04-24T06:50:41.094Z,26.40
2023-04-24T06:53:09.427Z,28.08
2023-04-24T06:55:38.125Z,17.13
2023-04-24T06:58:06.161Z,19.10
2023-04-24T07:00:34.076Z,18.67
2023-04-24T07:03:02.469Z,11.80
2023-04-24T07:05:30.906Z,23.85
2023-04-24T07:07:59.507Z,42.45
2023-04-24T07:10:29.853Z,31.60
2023-04-24T07:12:58.294Z,26.52
2023-04-24T07:15:26.155Z,24.08
2023-04-24T07:17:54.024Z,30.08
2023-04-24T07:20:21.917Z,39.30
2023-04-24T07:22:50.263Z,23.42
2023-04-24T07:25:18.135Z,25.52
2023-04-24T07:27:45.945Z,31.20
2023-04-24T07:30:13.824Z,30.00
2023-04-24T07:32:41.876Z,25.77
2023-04-24T07:35:10.866Z,27.27
2023-04-24T07:37:38.740Z,33.53
2023-04-24T07:40:06.775Z,26.13
2023-04-24T07:42:35.944Z,20.48
2023-04-24T07:45:03.933Z,23.88
2023-04-24T07:47:31.791Z,35.15
2023-04-24T07:49:59.743Z,64.28
2023-04-24T07:52:27.750Z,36.15
2023-04-24T07:54:59.522Z,22.27
2023-04-24T07:57:27.796Z,25.67
2023-04-24T07:59:56.692Z,18.67
2023-04-24T08:02:28.593Z,20.35
2023-04-24T08:05:00.358Z,27.02
2023-04-24T08:07:28.365Z,29.17
2023-04-24T08:09:56.423Z,34.08
2023-04-24T08:12:24.464Z,25.02
2023-04-24T08:14:52.238Z,23.73
2023-04-24T08:17:20.307Z,21.23
2023-04-24T08:19:52.247Z,30.42
2023-04-24T08:22:20.426Z,46.42
2023-04-24T08:24:48.209Z,24.75
2023-04-24T08:27:16.097Z,32.30
2023-04-24T08:29:46.450Z,41.00
2023-04-24T08:32:14.359Z,30.35
2023-04-24T08:34:42.111Z,18.17
2023-04-24T08:37:10.081Z,46.67
2023-04-24T08:39:37.825Z,61.00
2023-04-24T08:42:09.331Z,67.53
2023-04-24T08:44:38.301Z,70.38
2023-04-24T08:47:06.458Z,31.60
2023-04-24T08:49:34.391Z,70.65
2023-04-24T08:52:02.566Z,23.40
2023-04-24T08:54:31.039Z,71.05
2023-04-24T08:57:02.677Z,55.58
2023-04-24T08:59:30.937Z,52.15
2023-04-24T09:01:59.981Z,25.65
2023-04-24T09:04:28.011Z,24.27
2023-04-24T09:06:59.833Z,24.30
2023-04-24T09:09:27.700Z,55.80
2023-04-24T09:11:57.084Z,22.23
2023-04-24T09:14:25.881Z,38.28
2023-04-24T09:16:53.917Z,24.08
2023-04-24T09:19:31.052Z,14.80
2023-04-24T09:21:58.770Z,37.65
2023-04-24T09:24:26.554Z,52.78
2023-04-24T09:27:02.529Z,22.67
2023-04-24T09:29:30.349Z,36.42
2023-04-24T09:31:58.137Z,37.85
2023-04-24T09:34:26.570Z,16.50
2023-04-24T09:36:55.075Z,32.55
2023-04-24T09:39:22.718Z,25.25
2023-04-24T09:41:54.216Z,30.77
2023-04-24T09:44:25.220Z,19.92
2023-04-24T09:46:57.162Z,25.48
2023-04-24T09:49:26.276Z,59.65
2023-04-24T09:51:54.400Z,69.93
2023-04-24T09:54:23.590Z,59.72
2023-04-24T09:56:53.950Z,22.20
2023-04-24T09:59:21.980Z,30.90
2023-04-24T10:01:50.628Z,45.63
2023-04-24T10:04:22.456Z,58.60
2023-04-24T10:06:50.643Z,43.47
2023-04-24T10:09:19.333Z,29.90
2023-04-24T10:11:48.342Z,17.60
2023-04-24T10:14:17.238Z,22.17
2023-04-24T10:16:45.588Z,21.70
2023-04-24T10:19:14.239Z,20.35
2023-04-24T10:21:49.406Z,24.98
2023-04-24T10:24:17.759Z,15.50
2023-04-24T10:26:46.137Z,16.40
2023-04-24T10:29:16.849Z,17.75
2023-04-24T10:31:47.335Z,19.08
2023-04-24T10:34:16.734Z,18.95
2023-04-24T10:36:47.305Z,34.72
2023-04-24T10:39:18.400Z,12.40
2023-04-24T10:41:47.537Z,26.30
2023-04-24T10:44:18.707Z,25.92
2023-04-24T10:46:48.624Z,16.25
2023-04-24T10:49:16.475Z,22.75
2023-04-24T10:51:51.345Z,19.73
2023-04-24T10:54:29.463Z,28.17
2023-04-24T10:57:23.879Z,26.65
2023-04-24T11:02:20.975Z,39.33
2023-04-24T11:04:52.881Z,20.52
2023-04-24T11:07:24.268Z,19.00
2023-04-24T11:10:00.237Z,29.35
2023-04-24T11:15:01.509Z,13.93
2023-04-24T11:17:33.059Z,21.80
2023-04-24T11:20:24.968Z,27.35
2023-04-24T11:22:58.907Z,8.35
2023-04-24T11:25:28.081Z,17.38
2023-04-24T11:28:05.335Z,22.83
2023-04-24T11:30:34.568Z,52.72
2023-04-24T11:33:06.817Z,58.65
2023-04-24T11:35:41.143Z,25.75
2023-04-24T11:40:40.968Z,67.00
2023-04-24T11:43:11.869Z,21.67
2023-04-24T11:45:39.937Z,19.70
2023-04-24T11:48:07.891Z,48.15
2023-04-24T11:50:38.364Z,53.97
2023-04-24T11:53:06.345Z,51.08
2023-04-24T11:55:34.212Z,29.67
2023-04-24T11:58:02.718Z,24.75
2023-04-24T12:00:32.054Z,21.67
2023-04-24T12:03:07.721Z,60.97
2023-04-24T12:05:36.258Z,11.25
2023-04-24T12:08:04.295Z,23.65
2023-04-24T12:10:32.912Z,18.83
2023-04-24T12:13:01.477Z,21.20
2023-04-24T12:15:29.765Z,25.17
2023-04-24T12:17:58.114Z,23.90
2023-04-24T12:20:29.768Z,19.73
2023-04-24T12:23:02.628Z,22.75
2023-04-24T12:25:32.046Z,21.33
2023-04-24T12:28:06.200Z,20.80
2023-04-24T12:30:35.766Z,12.57
2023-04-24T12:33:04.776Z,37.42
2023-04-24T12:35:40.461Z,18.85
2023-04-24T12:38:15.490Z,24.05
2023-04-24T12:40:44.307Z,24.90
2023-04-24T12:43:19.385Z,24.27
2023-04-24T12:45:47.345Z,15.13
2023-04-24T12:48:18.083Z,15.95
2023-04-24T12:50:47.714Z,18.02
2023-04-24T12:55:43.957Z,43.50
2023-04-24T12:58:11.947Z,43.95
2023-04-24T13:00:40.428Z,43.58
2023-04-24T13:03:08.949Z,38.83
2023-04-24T13:05:36.943Z,27.50
2023-04-24T13:08:05.032Z,13.50
2023-04-24T13:10:32.952Z,19.65
2023-04-24T13:13:04.506Z,11.48
2023-04-24T13:15:32.421Z,11.40
2023-04-24T13:18:00.436Z,8.98
2023-04-24T13:20:28.446Z,14.25
2023-04-24T13:22:56.537Z,18.73
2023-04-24T13:25:24.725Z,13.55
2023-04-24T13:27:52.733Z,13.63
2023-04-24T13:30:20.683Z,12.82
2023-04-24T13:32:48.691Z,46.00
2023-04-24T13:35:16.975Z,45.67
2023-04-24T13:37:45.080Z,39.03
2023-04-24T13:40:16.183Z,27.65
2023-04-24T13:42:44.207Z,10.43
2023-04-24T13:45:23.839Z,12.25
2023-04-24T13:47:52.737Z,24.58
2023-04-24T13:50:20.915Z,16.00
2023-04-24T13:52:49.000Z,13.30
2023-04-24T13:55:17.009Z,23.80
2023-04-24T13:57:44.766Z,16.30
2023-04-24T14:00:14.466Z,14.15
2023-04-24T14:05:12.314Z,18.77
2023-04-24T14:07:40.198Z,16.40
2023-04-24T14:10:08.393Z,13.23
2023-04-24T14:12:38.053Z,17.67
2023-04-24T14:15:06.383Z,6.82
2023-04-24T14:17:34.429Z,19.85
2023-04-24T14:20:02.946Z,9.98
2023-04-24T14:22:33.359Z,9.88
2023-04-24T14:25:03.692Z,18.10
2023-04-24T14:27:31.599Z,6.53
2023-04-24T14:29:59.371Z,12.60
2023-04-24T14:32:27.398Z,16.45
2023-04-24T14:34:55.366Z,7.55
2023-04-24T14:37:23.374Z,3.70
2023-04-24T14:40:05.610Z,17.15
2023-04-24T14:42:39.058Z,7.60
2023-04-24T14:45:07.675Z,8.32
2023-04-24T14:47:35.672Z,5.50
2023-04-24T14:50:03.643Z,11.07
2023-04-24T14:52:31.748Z,4.68
2023-04-24T14:54:59.598Z,8.70
2023-04-24T14:57:27.695Z,12.35
2023-04-24T14:59:56.479Z,17.10
2023-04-24T15:02:24.429Z,9.10
2023-04-24T15:04:52.662Z,13.75
2023-04-24T15:07:21.168Z,18.15
2023-04-24T15:09:51.341Z,11.40
2023-04-24T15:12:19.320Z,8.70
2023-04-24T15:14:47.158Z,21.88
2023-04-24T15:17:16.304Z,11.00
2023-04-24T15:19:44.142Z,6.50
2023-04-24T15:22:12.407Z,10.05
2023-04-24T15:24:40.668Z,11.75
2023-04-24T15:27:11.256Z,20.33
2023-04-24T15:29:39.158Z,9.27
2023-04-24T15:32:09.514Z,9.00
2023-04-24T15:34:38.324Z,9.38
2023-04-24T15:37:06.447Z,9.00
2023-04-24T15:39:34.265Z,12.02
2023-04-24T15:42:02.295Z,6.18
2023-04-24T15:44:30.219Z,13.40
2023-04-24T15:46:58.040Z,23.63
2023-04-24T15:49:26.180Z,12.85
2023-04-24T15:51:54.369Z,11.30
2023-04-24T15:54:22.163Z,6.70
2023-04-24T15:56:51.778Z,11.07
2023-04-24T15:59:20.053Z,10.43
2023-04-24T16:01:49.099Z,15.02
2023-04-24T16:04:17.236Z,11.77
2023-04-24T16:06:45.164Z,10.75
2023-04-24T16:09:13.576Z,7.88
2023-04-24T16:11:41.503Z,18.80
2023-04-24T16:14:10.820Z,8.85
2023-04-24T16:16:38.839Z,21.25
2023-04-24T16:19:09.028Z,5.80
2023-04-24T16:21:36.960Z,15.23
2023-04-24T16:24:04.755Z,6.05
2023-04-24T16:26:32.681Z,14.32
2023-04-24T16:29:00.488Z,13.57
2023-04-24T16:31:28.562Z,7.68
2023-04-24T16:33:56.592Z,10.73
2023-04-24T16:36:24.667Z,9.65
2023-04-24T16:38:55.291Z,22.58
2023-04-24T16:41:23.203Z,6.80
2023-04-24T16:43:51.477Z,14.73
2023-04-24T16:46:20.140Z,11.38
2023-04-24T16:48:49.421Z,18.88
2023-04-24T16:51:17.337Z,13.20
2023-04-24T16:53:45.573Z,10.68
2023-04-24T16:56:16.020Z,7.93
2023-04-24T16:58:44.040Z,11.55
2023-04-24T17:01:12.977Z,7.93
2023-04-24T17:03:41.949Z,17.15
2023-04-24T17:06:12.814Z,11.77
2023-04-24T17:08:41.088Z,8.20
2023-04-24T17:11:09.114Z,11.70
2023-04-24T17:13:37.087Z,11.98
2023-04-24T17:16:05.001Z,12.73
2023-04-24T17:18:35.418Z,7.10
2023-04-24T17:21:03.309Z,5.88
2023-04-24T17:23:31.333Z,6.05
2023-04-24T17:25:59.277Z,9.18
2023-04-24T17:28:26.934Z,9.13
2023-04-24T17:30:58.166Z,8.90
2023-04-24T17:33:26.609Z,14.07
2023-04-24T17:35:54.422Z,16.42
2023-04-24T17:38:22.222Z,7.40
2023-04-24T17:40:53.208Z,5.97
2023-04-24T17:43:21.459Z,4.35
2023-04-24T17:45:53.031Z,5.20
2023-04-24T17:48:24.087Z,6.97
2023-04-24T17:50:54.349Z,8.70
2023-04-24T17:53:22.965Z,10.68
2023-04-24T17:55:51.170Z,8.93
2023-04-24T17:58:19.503Z,7.85
2023-04-24T18:00:47.829Z,6.38
2023-04-24T18:03:15.938Z,3.20
2023-04-24T18:05:43.852Z,9.60
2023-04-24T18:08:11.659Z,10.40
2023-04-24T18:10:40.193Z,9.55
2023-04-24T18:13:08.074Z,7.30
2023-04-24T18:15:43.511Z,3.40
2023-04-24T18:18:11.928Z,2.03
2023-04-24T18:20:42.941Z,8.85
2023-04-24T18:23:11.004Z,2.90
2023-04-24T18:25:38.718Z,8.93
2023-04-24T18:28:08.898Z,7.72
2023-04-24T18:30:36.849Z,5.72
2023-04-24T18:33:04.698Z,9.80
2023-04-24T18:35:32.542Z,9.98
2023-04-24T18:38:00.295Z,4.60
2023-04-24T18:40:28.113Z,6.20
2023-04-24T18:42:57.172Z,12.02
2023-04-24T18:45:25.016Z,5.95
2023-04-24T18:47:52.805Z,8.25
2023-04-24T18:50:20.660Z,8.63
2023-04-24T18:52:48.558Z,3.63
2023-04-24T18:55:16.239Z,2.67
2023-04-24T18:57:44.102Z,4.55
2023-04-24T19:00:12.550Z,5.85
2023-04-24T19:02:43.928Z,6.10
2023-04-24T19:05:12.213Z,3.40
2023-04-24T19:07:42.298Z,5.45
2023-04-24T19:10:10.514Z,12.00
2023-04-24T19:12:38.320Z,6.45
2023-04-24T19:15:06.321Z,6.00
2023-04-24T19:17:34.211Z,11.57
2023-04-24T19:20:02.072Z,6.20
2023-04-24T19:22:30.432Z,6.55
2023-04-24T19:24:58.808Z,5.47
2023-04-24T19:27:26.702Z,3.28
2023-04-24T19:29:54.697Z,5.93
2023-04-24T19:32:22.688Z,5.65
2023-04-24T19:34:50.672Z,4.97
2023-04-24T19:37:18.484Z,7.88
2023-04-24T19:39:46.325Z,4.35
2023-04-24T19:42:14.030Z,4.78
2023-04-24T19:44:41.983Z,4.07
2023-04-24T19:47:09.807Z,6.10
2023-04-24T19:49:37.762Z,6.68
2023-04-24T19:52:05.785Z,2.72
2023-04-24T19:54:33.834Z,3.80
2023-04-24T19:57:01.946Z,5.72
2023-04-24T19:59:30.731Z,4.13
2023-04-24T20:02:00.871Z,7.25
2023-04-24T20:04:28.967Z,4.28
2023-04-24T20:06:56.929Z,4.45
2023-04-24T20:09:24.704Z,2.40
2023-04-24T20:11:53.732Z,4.75
2023-04-24T20:14:21.567Z,3.55
2023-04-24T20:16:49.561Z,2.50
2023-04-24T20:19:17.395Z,3.90
2023-04-24T20:21:45.254Z,3.33
2023-04-24T20:24:13.194Z,3.40
2023-04-24T20:26:41.026Z,4.68
2023-04-24T20:29:09.063Z,4.10
2023-04-24T20:31:36.947Z,7.20
2023-04-24T20:34:06.296Z,3.65
2023-04-24T20:36:34.133Z,6.97
2023-04-24T20:39:06.732Z,4.55
2023-04-24T20:41:35.641Z,11.63
2023-04-24T20:44:04.281Z,4.43
2023-04-24T20:46:35.275Z,5.97
2023-04-24T20:49:03.811Z,2.40
2023-04-24T20:51:32.457Z,5.45
2023-04-24T20:54:00.298Z,4.40
2023-04-24T20:56:28.201Z,4.57
2023-04-24T20:58:57.216Z,2.10
2023-04-24T21:01:26.488Z,4.47
2023-04-24T21:03:56.863Z,3.03
2023-04-24T21:06:24.653Z,7.53
2023-04-24T21:08:52.456Z,3.17
2023-04-24T21:11:20.590Z,3.97
2023-04-24T21:13:49.014Z,2.72
2023-04-24T21:16:17.102Z,5.03
2023-04-24T21:18:45.154Z,3.33
2023-04-24T21:21:12.886Z,1.30
2023-04-24T21:23:41.149Z,1.58
2023-04-24T21:26:09.415Z,19.38
2023-04-24T21:28:37.663Z,2.60
2023-04-24T21:31:05.485Z,5.68
2023-04-24T21:33:33.382Z,0.90
2023-04-24T21:36:01.626Z,4.85
2023-04-24T21:38:29.326Z,4.32
2023-04-24T21:40:57.127Z,3.33
2023-04-24T21:43:30.790Z,6.88
2023-04-24T21:46:05.404Z,7.15
2023-04-24T21:48:33.238Z,8.27
2023-04-24T21:51:01.118Z,2.90
2023-04-24T21:53:29.893Z,3.25
2023-04-24T21:55:57.833Z,6.47
2023-04-24T21:58:25.675Z,3.65
2023-04-24T22:00:53.726Z,2.85
2023-04-24T22:03:22.246Z,7.40
2023-04-24T22:05:50.298Z,2.35
2023-04-24T22:08:18.207Z,4.82
2023-04-24T22:10:46.157Z,3.10
2023-04-24T22:13:13.928Z,4.72
2023-04-24T22:15:41.989Z,3.10
2023-04-24T22:18:15.304Z,3.10
2023-04-24T22:20:43.221Z,2.17
2023-04-24T22:23:14.089Z,2.95
2023-04-24T22:25:41.854Z,2.55
2023-04-24T22:28:12.205Z,4.32
2023-04-24T22:30:39.941Z,7.25
2023-04-24T22:33:07.845Z,3.13
2023-04-24T22:35:37.416Z,2.60
2023-04-24T22:38:05.249Z,5.43
2023-04-24T22:40:35.048Z,6.07
2023-04-24T22:43:02.967Z,5.32
2023-04-24T22:45:30.713Z,8.02
2023-04-24T22:47:58.731Z,2.58
2023-04-24T22:50:26.758Z,4.95
2023-04-24T22:52:54.781Z,7.32
2023-04-24T22:55:22.491Z,6.97
2023-04-24T22:57:50.522Z,3.28
2023-04-24T23:00:18.938Z,3.65
2023-04-24T23:02:47.399Z,3.40
2023-04-24T23:05:15.327Z,10.48
2023-04-24T23:07:43.310Z,3.92
2023-04-24T23:10:11.363Z,6.38
2023-04-24T23:12:39.771Z,4.40
2023-04-24T23:15:08.175Z,17.83
2023-04-24T23:17:35.991Z,5.43
2023-04-24T23:20:04.800Z,7.80
2023-04-24T23:22:32.700Z,5.32
2023-04-24T23:25:00.574Z,7.93
2023-04-24T23:27:31.262Z,5.10
2023-04-24T23:29:59.054Z,4.10
2023-04-24T23:32:27.092Z,3.15
2023-04-24T23:34:54.989Z,6.22
2023-04-24T23:37:22.931Z,5.70
2023-04-24T23:39:51.100Z,5.43
2023-04-24T23:42:19.013Z,7.35
2023-04-24T23:44:46.621Z,7.85
2023-04-24T23:47:14.473Z,7.07
2023-04-24T23:49:42.313Z,3.42
2023-04-24T23:52:10.216Z,10.38
2023-04-24T23:54:38.023Z,1.42
2023-04-24T23:57:05.832Z,4.18
2023-04-24T23:59:36.951Z,7.32
